createdAt,value
2022-09-13T00:02:18.063Z,21.78
2022-09-13T00:04:44.930Z,21.77
2022-09-13T00:07:11.643Z,21.77
2022-09-13T00:09:38.463Z,21.76
2022-09-13T00:12:05.398Z,21.78
2022-09-13T00:14:32.174Z,21.78
2022-09-13T00:16:59.015Z,21.78
2022-09-13T00:19:26.072Z,21.78
2022-09-13T00:21:52.846Z,21.79
2022-09-13T00:24:19.614Z,21.79
2022-09-13T00:26:46.327Z,21.83
2022-09-13T00:29:13.120Z,21.85
2022-09-13T00:31:40.273Z,21.87
2022-09-13T00:34:07.076Z,21.89
2022-09-13T00:36:34.156Z,21.92
2022-09-13T00:39:01.480Z,21.94
2022-09-13T00:41:28.583Z,21.96
2022-09-13T00:44:01.793Z,21.98
2022-09-13T00:46:37.625Z,21.99
2022-09-13T00:49:21.168Z,21.99
2022-09-13T00:51:58.530Z,22.01
2022-09-13T00:54:31.338Z,22.04
2022-09-13T00:57:02.679Z,22.05
2022-09-13T00:59:37.346Z,22.08
2022-09-13T01:02:05.877Z,22.10
2022-09-13T01:04:39.336Z,22.13
2022-09-13T01:07:13.183Z,22.14
2022-09-13T01:09:45.963Z,22.19
2022-09-13T01:12:53.464Z,22.20
2022-09-13T01:15:21.222Z,22.24
2022-09-13T01:17:50.539Z,22.26
2022-09-13T01:20:17.380Z,22.30
2022-09-13T01:23:20.333Z,22.31
2022-09-13T01:26:07.892Z,22.30
2022-09-13T01:29:33.842Z,22.25
2022-09-13T01:32:24.956Z,22.22
2022-09-13T01:35:46.046Z,22.19
2022-09-13T01:38:25.157Z,22.16
2022-09-13T01:41:33.643Z,22.15
2022-09-13T01:44:28.454Z,22.11
2022-09-13T01:47:34.409Z,22.08
2022-09-13T01:50:22.892Z,22.06
2022-09-13T01:52:58.878Z,22.06
2022-09-13T01:55:41.693Z,22.05
2022-09-13T01:58:39.461Z,22.04
2022-09-13T02:01:23.231Z,22.03
2022-09-13T02:03:59.795Z,22.01
2022-09-13T02:06:40.461Z,22.01
2022-09-13T02:09:21.548Z,22.02
2022-09-13T02:11:58.083Z,22.05
2022-09-13T02:14:37.440Z,22.04
2022-09-13T02:17:09.791Z,22.07
2022-09-13T02:19:57.636Z,22.09
2022-09-13T02:22:33.059Z,22.11
2022-09-13T02:25:15.038Z,22.11
2022-09-13T02:27:48.403Z,22.14
2022-09-13T02:30:15.918Z,22.16
2022-09-13T02:32:57.482Z,22.18
2022-09-13T02:35:35.582Z,22.19
2022-09-13T02:38:15.246Z,22.23
2022-09-13T02:40:56.324Z,22.25
2022-09-13T02:43:33.462Z,22.27
2022-09-13T02:46:35.625Z,22.28
2022-09-13T02:49:46.845Z,22.27
2022-09-13T02:52:34.615Z,22.29
2022-09-13T02:55:25.987Z,22.32
2022-09-13T02:58:11.542Z,22.35
2022-09-13T03:00:39.073Z,22.37
2022-09-13T03:03:11.713Z,22.42
2022-09-13T03:05:38.518Z,22.44
2022-09-13T03:08:10.051Z,22.46
2022-09-13T03:11:20.679Z,22.46
2022-09-13T03:14:40.309Z,22.46
2022-09-13T03:17:15.455Z,22.49
2022-09-13T03:20:09.349Z,22.49
2022-09-13T03:22:57.014Z,22.50
2022-09-13T03:25:43.610Z,22.51
2022-09-13T03:28:44.503Z,22.50
2022-09-13T03:31:46.092Z,22.50
2022-09-13T03:34:21.954Z,22.51
2022-09-13T03:37:32.583Z,22.50
2022-09-13T03:40:10.729Z,22.51
2022-09-13T03:42:58.605Z,22.53
2022-09-13T03:45:31.527Z,22.52
2022-09-13T03:47:59.635Z,22.52
2022-09-13T03:50:27.509Z,22.54
2022-09-13T03:53:04.542Z,22.55
2022-09-13T03:55:34.873Z,22.51
2022-09-13T03:58:01.859Z,22.53
2022-09-13T04:00:29.488Z,22.52
2022-09-13T04:02:56.280Z,22.54
2022-09-13T04:05:23.065Z,22.55
2022-09-13T04:07:49.822Z,22.56
2022-09-13T04:10:16.655Z,22.55
2022-09-13T04:12:43.440Z,22.53
2022-09-13T04:15:10.282Z,22.54
2022-09-13T04:17:37.174Z,22.50
2022-09-13T04:20:05.517Z,22.48
2022-09-13T04:22:33.508Z,22.47
2022-09-13T04:25:02.536Z,22.48
2022-09-13T04:27:29.787Z,22.48
2022-09-13T04:29:56.563Z,22.49
2022-09-13T04:32:23.466Z,22.50
2022-09-13T04:34:50.189Z,22.50
2022-09-13T04:37:17.000Z,22.51
2022-09-13T04:39:43.920Z,22.51
2022-09-13T04:42:11.403Z,22.51
2022-09-13T04:44:38.290Z,22.54
2022-09-13T04:47:06.310Z,22.54
2022-09-13T04:49:33.820Z,22.55
2022-09-13T04:52:06.419Z,22.55
2022-09-13T04:54:33.287Z,22.53
2022-09-13T04:57:00.135Z,22.55
2022-09-13T04:59:27.778Z,22.57
2022-09-13T05:01:54.608Z,22.55
2022-09-13T05:04:21.367Z,22.57
2022-09-13T05:06:50.994Z,22.59
2022-09-13T05:09:17.999Z,22.59
2022-09-13T05:11:44.988Z,22.59
2022-09-13T05:14:12.813Z,22.59
2022-09-13T05:16:39.958Z,22.59
2022-09-13T05:19:07.029Z,22.59
2022-09-13T05:21:33.980Z,22.61
2022-09-13T05:24:00.806Z,22.61
2022-09-13T05:26:31.173Z,22.63
2022-09-13T05:29:01.519Z,22.65
2022-09-13T05:31:36.518Z,22.66
2022-09-13T05:34:10.845Z,22.68
2022-09-13T05:36:38.998Z,22.71
2022-09-13T05:41:54.953Z,22.74
2022-09-13T05:44:21.833Z,22.80
2022-09-13T05:46:51.630Z,22.84
2022-09-13T05:49:18.398Z,22.86
2022-09-13T05:51:45.770Z,22.90
2022-09-13T05:54:13.626Z,22.94
2022-09-13T05:56:40.745Z,22.96
2022-09-13T05:59:08.910Z,23.02
2022-09-13T06:01:35.854Z,23.05
2022-09-13T06:04:02.770Z,23.11
2022-09-13T06:06:29.523Z,23.13
2022-09-13T06:08:57.645Z,23.18
2022-09-13T06:11:26.575Z,23.22
2022-09-13T06:13:53.721Z,23.27
2022-09-13T06:16:21.136Z,23.31
2022-09-13T06:18:48.860Z,23.36
2022-09-13T06:21:20.330Z,23.44
2022-09-13T06:23:53.330Z,23.51
2022-09-13T06:26:24.183Z,23.57
2022-09-13T06:28:54.516Z,23.63
2022-09-13T06:31:25.790Z,23.69
2022-09-13T06:33:59.692Z,23.75
2022-09-13T06:36:27.433Z,23.82
2022-09-13T06:38:54.205Z,23.88
2022-09-13T06:41:24.054Z,23.96
2022-09-13T06:43:57.385Z,24.02
2022-09-13T06:46:26.271Z,24.11
2022-09-13T06:48:53.377Z,24.16
2022-09-13T06:51:23.519Z,24.24
2022-09-13T06:53:52.198Z,24.30
2022-09-13T06:56:22.837Z,24.36
2022-09-13T06:58:52.611Z,24.44
2022-09-13T07:01:29.614Z,24.49
2022-09-13T07:04:03.643Z,24.54
2022-09-13T07:06:34.922Z,24.60
2022-09-13T07:09:05.151Z,24.65
2022-09-13T07:11:38.696Z,24.73
2022-09-13T07:14:09.496Z,24.80
2022-09-13T07:16:38.321Z,24.85
2022-09-13T07:19:12.457Z,24.94
2022-09-13T07:21:39.307Z,25.01
2022-09-13T07:24:06.720Z,25.10
2022-09-13T07:26:34.329Z,25.19
2022-09-13T07:29:05.154Z,25.27
2022-09-13T07:31:41.730Z,25.36
2022-09-13T07:34:14.795Z,25.44
2022-09-13T07:36:42.699Z,25.50
2022-09-13T07:39:13.737Z,25.58
2022-09-13T07:41:43.223Z,25.66
2022-09-13T07:44:11.742Z,25.78
2022-09-13T07:46:43.707Z,25.92
2022-09-13T07:49:18.268Z,26.10
2022-09-13T07:51:46.119Z,26.27
2022-09-13T07:54:17.599Z,26.48
2022-09-13T07:56:45.438Z,26.67
2022-09-13T07:59:16.079Z,26.84
2022-09-13T08:01:47.268Z,27.04
2022-09-13T08:04:18.810Z,27.24
2022-09-13T08:06:46.979Z,27.45
2022-09-13T08:09:14.498Z,27.70
2022-09-13T08:11:48.530Z,27.97
2022-09-13T08:14:18.813Z,28.18
2022-09-13T08:16:46.313Z,28.41
2022-09-13T08:19:16.732Z,28.75
2022-09-13T08:21:44.655Z,29.26
2022-09-13T08:24:23.445Z,29.83
2022-09-13T08:26:52.116Z,30.45
2022-09-13T08:29:19.321Z,30.95
2022-09-13T08:31:46.064Z,31.35
2022-09-13T08:34:15.869Z,31.62
2022-09-13T08:36:43.485Z,31.85
2022-09-13T08:39:17.826Z,32.10
2022-09-13T08:42:09.010Z,32.50
2022-09-13T08:44:56.226Z,33.05
2022-09-13T08:47:41.176Z,33.66
2022-09-13T08:50:19.608Z,34.33
2022-09-13T08:53:03.799Z,35.06
2022-09-13T08:55:57.954Z,35.78
2022-09-13T08:58:39.322Z,36.66
2022-09-13T09:01:13.212Z,37.35
2022-09-13T09:04:06.078Z,38.08
2022-09-13T09:06:38.041Z,38.83
2022-09-13T09:09:10.711Z,39.54
2022-09-13T09:12:17.213Z,40.26
2022-09-13T09:15:05.263Z,40.86
2022-09-13T09:18:10.640Z,41.30
2022-09-13T09:20:43.746Z,41.69
2022-09-13T09:23:20.502Z,42.07
2022-09-13T09:25:55.015Z,42.45
2022-09-13T09:28:22.045Z,42.79
2022-09-13T09:31:04.272Z,43.03
2022-09-13T09:33:59.805Z,43.20
2022-09-13T09:36:37.690Z,43.29
2022-09-13T09:39:06.442Z,43.28
2022-09-13T09:41:36.907Z,43.42
2022-09-13T09:44:22.849Z,43.64
2022-09-13T09:46:59.517Z,43.92
2022-09-13T09:49:46.532Z,44.11
2022-09-13T09:52:19.009Z,44.27
2022-09-13T09:54:48.343Z,44.32
2022-09-13T09:57:15.237Z,44.35
2022-09-13T09:59:41.956Z,44.31
2022-09-13T10:02:22.172Z,44.14
2022-09-13T10:05:01.099Z,43.90
2022-09-13T10:07:34.499Z,43.60
2022-09-13T10:10:20.465Z,43.21
2022-09-13T10:12:53.586Z,42.74
2022-09-13T10:15:33.600Z,42.30
2022-09-13T10:18:42.372Z,41.83
2022-09-13T10:21:07.324Z,41.46
2022-09-13T10:23:37.026Z,41.12
2022-09-13T10:26:16.549Z,40.79
2022-09-13T10:28:52.186Z,40.52
2022-09-13T10:31:21.410Z,40.23
2022-09-13T10:33:51.349Z,39.95
2022-09-13T10:36:52.596Z,39.60
2022-09-13T10:39:23.760Z,39.27
2022-09-13T10:42:05.307Z,38.96
2022-09-13T10:44:56.673Z,38.61
2022-09-13T10:47:35.624Z,38.39
2022-09-13T10:50:31.480Z,38.14
2022-09-13T10:53:00.089Z,38.00
2022-09-13T10:55:40.721Z,37.81
2022-09-13T10:58:08.050Z,37.65
2022-09-13T11:01:14.209Z,37.45
2022-09-13T11:04:23.830Z,37.24
2022-09-13T11:07:03.874Z,37.15
2022-09-13T11:09:52.878Z,37.22
2022-09-13T11:12:58.649Z,37.48
2022-09-13T11:16:06.915Z,37.89
2022-09-13T11:18:55.521Z,38.24
2022-09-13T11:21:32.467Z,38.45
2022-09-13T11:24:27.301Z,38.56
2022-09-13T11:27:10.499Z,38.57
2022-09-13T11:29:58.739Z,38.51
2022-09-13T11:33:03.703Z,38.51
2022-09-13T11:36:07.570Z,38.68
2022-09-13T11:39:09.771Z,38.75
2022-09-13T11:42:11.749Z,38.71
2022-09-13T11:45:03.266Z,38.65
2022-09-13T11:47:54.577Z,38.57
2022-09-13T11:50:47.178Z,38.49
2022-09-13T11:53:44.211Z,38.48
2022-09-13T11:56:40.237Z,38.36
2022-09-13T11:59:45.051Z,38.28
2022-09-13T12:02:40.610Z,38.17
2022-09-13T12:05:33.591Z,38.06
2022-09-13T12:08:10.075Z,38.00
2022-09-13T12:11:02.501Z,37.82
2022-09-13T12:13:52.520Z,37.63
2022-09-13T12:16:50.245Z,37.41
2022-09-13T12:19:46.464Z,37.22
2022-09-13T12:22:14.262Z,37.11
2022-09-13T12:24:50.486Z,37.04
2022-09-13T12:27:40.889Z,36.96
2022-09-13T12:30:26.082Z,36.90
2022-09-13T12:32:58.653Z,36.80
2022-09-13T12:35:48.099Z,36.69
2022-09-13T12:38:37.365Z,36.54
2022-09-13T12:41:41.738Z,36.39
2022-09-13T12:44:45.673Z,36.27
2022-09-13T12:47:24.084Z,36.14
2022-09-13T12:50:43.346Z,36.00
2022-09-13T12:53:59.450Z,35.90
2022-09-13T12:56:46.779Z,35.75
2022-09-13T12:59:36.750Z,35.65
2022-09-13T13:02:34.881Z,35.51
2022-09-13T13:05:35.970Z,35.38
2022-09-13T13:08:17.806Z,35.31
2022-09-13T13:10:44.894Z,35.21
2022-09-13T13:13:25.058Z,35.17
2022-09-13T13:15:51.886Z,35.07
2022-09-13T13:18:37.044Z,34.96
2022-09-13T13:21:23.022Z,34.85
2022-09-13T13:24:15.597Z,34.75
2022-09-13T13:26:56.568Z,34.75
2022-09-13T13:29:32.562Z,34.75
2022-09-13T13:32:08.168Z,34.73
2022-09-13T13:34:46.952Z,34.72
2022-09-13T13:37:18.581Z,34.72
2022-09-13T13:39:48.273Z,34.73
2022-09-13T13:42:35.305Z,34.68
2022-09-13T13:45:02.069Z,34.63
2022-09-13T13:47:28.738Z,34.59
2022-09-13T13:50:19.149Z,34.53
2022-09-13T13:52:56.625Z,34.55
2022-09-13T13:55:30.146Z,34.54
2022-09-13T13:58:30.366Z,34.52
2022-09-13T14:01:01.393Z,34.53
2022-09-13T14:04:05.916Z,34.48
2022-09-13T14:07:06.014Z,34.47
2022-09-13T14:10:15.251Z,34.38
2022-09-13T14:13:45.760Z,34.23
2022-09-13T14:16:56.545Z,34.12
2022-09-13T14:19:49.227Z,34.06
2022-09-13T14:22:25.194Z,33.97
2022-09-13T14:25:24.505Z,33.87
2022-09-13T14:27:58.298Z,33.79
2022-09-13T14:30:34.859Z,33.73
2022-09-13T14:33:01.852Z,33.65
2022-09-13T14:35:40.962Z,33.56
2022-09-13T14:38:21.227Z,33.85
2022-09-13T14:40:57.742Z,33.59
2022-09-13T14:43:28.646Z,33.38
2022-09-13T14:46:15.288Z,33.22
2022-09-13T14:49:26.305Z,32.98
2022-09-13T14:52:04.414Z,32.91
2022-09-13T14:54:48.542Z,32.78
2022-09-13T14:57:34.018Z,32.68
2022-09-13T15:00:18.573Z,32.55
2022-09-13T15:03:10.857Z,32.45
2022-09-13T15:05:39.040Z,32.35
2022-09-13T15:08:33.589Z,32.21
2022-09-13T15:11:05.574Z,32.13
2022-09-13T15:13:34.554Z,32.00
2022-09-13T15:16:01.558Z,31.91
2022-09-13T15:18:36.606Z,31.78
2022-09-13T15:21:16.338Z,31.60
2022-09-13T15:23:53.446Z,31.42
2022-09-13T15:26:25.688Z,31.27
2022-09-13T15:28:55.260Z,31.12
2022-09-13T15:31:35.890Z,30.94
2022-09-13T15:34:23.640Z,30.76
2022-09-13T15:37:04.932Z,30.61
2022-09-13T15:39:51.599Z,30.44
2022-09-13T15:42:18.420Z,30.30
2022-09-13T15:44:45.325Z,30.16
2022-09-13T15:47:20.113Z,30.02
2022-09-13T15:49:52.078Z,29.88
2022-09-13T15:52:20.514Z,29.71
2022-09-13T15:54:51.280Z,29.56
2022-09-13T15:57:25.138Z,29.38
2022-09-13T15:59:55.634Z,29.21
2022-09-13T16:02:29.146Z,29.04
2022-09-13T16:04:56.490Z,28.83
2022-09-13T16:07:25.792Z,28.68
2022-09-13T16:09:53.570Z,28.50
2022-09-13T16:12:24.204Z,28.33
2022-09-13T16:14:53.286Z,28.17
2022-09-13T16:17:26.131Z,28.03
2022-09-13T16:19:54.412Z,27.85
2022-09-13T16:22:22.134Z,27.72
2022-09-13T16:24:49.023Z,27.59
2022-09-13T16:27:18.761Z,27.46
2022-09-13T16:29:46.915Z,27.30
2022-09-13T16:32:13.845Z,27.13
2022-09-13T16:34:40.591Z,26.96
2022-09-13T16:37:07.507Z,26.80
2022-09-13T16:39:34.276Z,26.64
2022-09-13T16:42:01.027Z,26.51
2022-09-13T16:44:27.818Z,26.33
2022-09-13T16:46:54.644Z,26.18
2022-09-13T16:49:21.401Z,26.04
2022-09-13T16:51:48.181Z,25.89
2022-09-13T16:54:14.984Z,25.77
2022-09-13T16:56:41.895Z,25.66
2022-09-13T16:59:08.655Z,25.55
2022-09-13T17:01:36.169Z,25.46
2022-09-13T17:04:03.692Z,25.36
2022-09-13T17:06:30.471Z,25.27
2022-09-13T17:09:03.166Z,25.18
2022-09-13T17:11:35.950Z,25.11
2022-09-13T17:14:06.489Z,25.03
2022-09-13T17:16:38.604Z,24.95
2022-09-13T17:19:13.219Z,24.88
2022-09-13T17:21:40.228Z,24.82
2022-09-13T17:24:11.386Z,24.74
2022-09-13T17:26:40.860Z,24.67
2022-09-13T17:29:07.679Z,24.63
2022-09-13T17:31:35.571Z,24.58
2022-09-13T17:34:02.340Z,24.52
2022-09-13T17:36:29.114Z,24.48
2022-09-13T17:38:57.469Z,24.41
2022-09-13T17:41:26.009Z,24.34
2022-09-13T17:43:54.316Z,24.27
2022-09-13T17:46:25.340Z,24.16
2022-09-13T17:48:54.710Z,24.07
2022-09-13T17:51:25.839Z,23.95
2022-09-13T17:54:00.339Z,23.83
2022-09-13T17:56:40.311Z,23.73
2022-09-13T17:59:15.527Z,23.64
2022-09-13T18:01:46.928Z,23.56
2022-09-13T18:04:15.877Z,23.51
2022-09-13T18:06:43.266Z,23.45
2022-09-13T18:09:12.532Z,23.40
2022-09-13T18:11:40.561Z,23.34
2022-09-13T18:14:12.400Z,23.31
2022-09-13T18:16:39.778Z,23.28
2022-09-13T18:19:07.259Z,23.27
2022-09-13T18:21:34.286Z,23.26
2022-09-13T18:24:01.658Z,23.22
2022-09-13T18:26:32.578Z,23.21
2022-09-13T18:29:04.132Z,23.19
2022-09-13T18:31:34.409Z,23.13
2022-09-13T18:34:06.990Z,23.09
2022-09-13T18:36:35.687Z,23.03
2022-09-13T18:39:06.246Z,22.99
2022-09-13T18:41:41.825Z,22.97
2022-09-13T18:44:10.950Z,22.94
2022-09-13T18:46:38.827Z,22.92
2022-09-13T18:49:07.060Z,22.90
2022-09-13T18:51:38.899Z,22.88
2022-09-13T18:54:10.875Z,22.86
2022-09-13T18:56:37.676Z,22.84
2022-09-13T18:59:09.519Z,22.84
2022-09-13T19:01:40.687Z,22.84
2022-09-13T19:04:13.715Z,22.84
2022-09-13T19:06:47.230Z,22.81
2022-09-13T19:09:14.874Z,22.80
2022-09-13T19:11:48.883Z,22.80
2022-09-13T19:14:28.494Z,22.79
2022-09-13T19:17:00.981Z,22.77
2022-09-13T19:19:27.893Z,22.75
2022-09-13T19:21:54.887Z,22.74
2022-09-13T19:24:22.015Z,22.73
2022-09-13T19:26:51.920Z,22.72
2022-09-13T19:29:22.748Z,22.71
2022-09-13T19:31:52.614Z,22.68
2022-09-13T19:34:22.097Z,22.65
2022-09-13T19:36:53.811Z,22.61
2022-09-13T19:39:20.806Z,22.57
2022-09-13T19:41:47.565Z,22.55
2022-09-13T19:44:14.827Z,22.50
2022-09-13T19:46:42.870Z,22.46
2022-09-13T19:49:14.482Z,22.43
2022-09-13T19:51:45.502Z,22.41
2022-09-13T19:54:17.992Z,22.38
2022-09-13T19:56:44.823Z,22.36
2022-09-13T19:59:15.616Z,22.38
2022-09-13T20:01:45.347Z,22.36
2022-09-13T20:04:19.171Z,22.36
2022-09-13T20:06:51.453Z,22.37
2022-09-13T20:09:20.525Z,22.39
2022-09-13T20:11:48.517Z,22.39
2022-09-13T20:14:18.792Z,22.41
2022-09-13T20:16:45.875Z,22.42
2022-09-13T20:22:08.419Z,22.38
2022-09-13T20:24:35.646Z,22.38
2022-09-13T20:27:02.596Z,22.35
2022-09-13T20:29:29.392Z,22.35
2022-09-13T20:31:56.112Z,22.34
2022-09-13T20:34:22.849Z,22.34
2022-09-13T20:36:49.638Z,22.35
2022-09-13T20:39:16.883Z,22.35
2022-09-13T20:41:44.234Z,22.34
2022-09-13T20:44:11.607Z,22.35
2022-09-13T20:46:40.258Z,22.37
2022-09-13T20:49:09.245Z,22.38
2022-09-13T20:51:37.407Z,22.39
2022-09-13T20:54:05.404Z,22.40
2022-09-13T20:56:34.126Z,22.41
2022-09-13T20:59:01.218Z,22.40
2022-09-13T21:01:31.460Z,22.41
2022-09-13T21:03:59.912Z,22.41
2022-09-13T21:06:29.584Z,22.40
2022-09-13T21:08:59.780Z,22.40
2022-09-13T21:11:35.899Z,22.40
2022-09-13T21:14:07.895Z,22.40
2022-09-13T21:16:39.691Z,22.40
2022-09-13T21:19:07.839Z,22.39
2022-09-13T21:21:38.612Z,22.39
2022-09-13T21:24:09.554Z,22.37
2022-09-13T21:26:41.911Z,22.36
2022-09-13T21:29:10.143Z,22.34
2022-09-13T21:31:37.734Z,22.33
2022-09-13T21:34:17.868Z,22.32
2022-09-13T21:36:46.494Z,22.30
2022-09-13T21:39:14.950Z,22.30
2022-09-13T21:41:42.946Z,22.27
2022-09-13T21:44:10.304Z,22.29
2022-09-13T21:46:39.220Z,22.30
2022-09-13T21:49:11.342Z,22.30
2022-09-13T21:51:40.965Z,22.32
2022-09-13T21:54:11.563Z,22.34
2022-09-13T21:56:42.047Z,22.35
2022-09-13T21:59:14.583Z,22.36
2022-09-13T22:01:46.148Z,22.36
2022-09-13T22:04:20.194Z,22.38
2022-09-13T22:06:52.065Z,22.33
2022-09-13T22:09:20.971Z,22.30
2022-09-13T22:11:49.590Z,22.27
2022-09-13T22:14:19.862Z,22.25
2022-09-13T22:16:46.783Z,22.23
2022-09-13T22:19:22.081Z,22.23
2022-09-13T22:21:53.477Z,22.22
2022-09-13T22:24:23.473Z,22.22
2022-09-13T22:26:52.915Z,22.21
2022-09-13T22:29:20.974Z,22.20
2022-09-13T22:31:50.468Z,22.15
2022-09-13T22:34:22.247Z,22.13
2022-09-13T22:36:49.374Z,22.11
2022-09-13T22:39:17.433Z,22.09
2022-09-13T22:41:44.912Z,22.11
2022-09-13T22:44:12.442Z,22.10
2022-09-13T22:46:43.081Z,22.11
2022-09-13T22:49:17.988Z,22.10
2022-09-13T22:51:46.439Z,22.09
2022-09-13T22:54:15.632Z,22.10
2022-09-13T22:56:42.882Z,22.09
2022-09-13T22:59:21.246Z,22.06
2022-09-13T23:01:49.119Z,22.06
2022-09-13T23:04:16.435Z,22.04
2022-09-13T23:06:46.550Z,22.02
2022-09-13T23:09:18.072Z,21.99
2022-09-13T23:11:45.691Z,21.98
2022-09-13T23:14:15.722Z,21.98
2022-09-13T23:16:46.614Z,21.97
2022-09-13T23:19:14.981Z,21.94
2022-09-13T23:21:42.910Z,21.94
2022-09-13T23:24:18.268Z,21.91
2022-09-13T23:26:46.467Z,21.87
2022-09-13T23:29:20.316Z,21.87
2022-09-13T23:31:48.011Z,21.84
2022-09-13T23:34:15.517Z,21.84
2022-09-13T23:36:44.423Z,21.85
2022-09-13T23:39:21.696Z,21.87
2022-09-13T23:41:50.901Z,21.87
2022-09-13T23:44:17.849Z,21.87
2022-09-13T23:46:45.267Z,21.91
2022-09-13T23:49:12.101Z,21.92
2022-09-13T23:51:39.147Z,21.92
2022-09-13T23:54:06.405Z,21.92
2022-09-13T23:56:34.999Z,21.92
2022-09-13T23:59:04.129Z,21.93
